Time;durP1;ratioP1;P1;durP2;ratioP2;P2;SDS_P1;SDS_P2;PMS_P1;PMS_P2;Temp;Humidity;BMP_temperature;BMP_pressure;BME280_temperature;BME280_humidity;BME280_pressure;Samples;Min_cycle;Max_cycle;Signal;HPM_P1;HPM_P2
2021/07/18 00:02:17;;;;;;;5.87;5.00;;;17.20;99.90;;;;;;4959977;29;20466;-57
2021/07/18 00:04:52;;;;;;;6.10;5.07;;;17.20;99.90;;;;;;4953293;28;20498;-55
2021/07/18 00:07:19;;;;;;;5.23;4.73;;;17.20;99.90;;;;;;4959290;28;20527;-57
2021/07/18 00:09:46;;;;;;;6.07;5.43;;;17.10;99.90;;;;;;4959390;29;20486;-55
2021/07/18 00:12:13;;;;;;;8.57;4.83;;;17.10;99.90;;;;;;4959716;29;20544;-57
2021/07/18 00:14:40;;;;;;;5.90;4.67;;;17.10;99.90;;;;;;4959432;29;20904;-58
2021/07/18 00:17:07;;;;;;;8.73;4.90;;;17.10;99.90;;;;;;4960207;29;20462;-58
2021/07/18 00:19:35;;;;;;;5.77;5.17;;;17.10;99.90;;;;;;4959805;29;20537;-55
2021/07/18 00:22:04;;;;;;;6.97;5.70;;;17.10;99.90;;;;;;4959485;29;20499;-57
2021/07/18 00:24:31;;;;;;;6.63;5.10;;;17.10;99.90;;;;;;4959703;29;20466;-57
2021/07/18 00:26:58;;;;;;;6.70;5.10;;;17.00;99.90;;;;;;4960218;29;20470;-56
2021/07/18 00:29:28;;;;;;;6.23;5.60;;;17.00;99.90;;;;;;4959896;29;20466;-57
2021/07/18 00:31:55;;;;;;;15.83;5.93;;;17.00;99.90;;;;;;4959507;29;20494;-57
2021/07/18 00:34:23;;;;;;;6.23;5.17;;;16.90;99.90;;;;;;4959676;29;20828;-57
2021/07/18 00:36:50;;;;;;;8.70;5.40;;;16.90;99.90;;;;;;4959372;29;20475;-58
2021/07/18 00:39:18;;;;;;;7.10;6.20;;;16.90;99.90;;;;;;4959674;29;20519;-55
2021/07/18 00:41:45;;;;;;;6.60;5.60;;;16.90;99.90;;;;;;4958995;29;20540;-59
2021/07/18 00:44:12;;;;;;;5.43;4.93;;;16.80;99.90;;;;;;4958216;29;20459;-57
2021/07/18 00:46:42;;;;;;;6.70;5.37;;;16.70;99.90;;;;;;4958640;29;20467;-57
2021/07/18 00:49:09;;;;;;;6.50;5.50;;;16.70;99.90;;;;;;4959756;28;20911;-55
2021/07/18 00:51:40;;;;;;;6.57;5.50;;;16.70;99.90;;;;;;4959359;28;20546;-55
2021/07/18 00:54:07;;;;;;;6.03;5.43;;;16.70;99.90;;;;;;4959165;29;20470;-59
2021/07/18 00:56:36;;;;;;;7.73;5.63;;;16.70;99.90;;;;;;4958976;29;20477;-55
2021/07/18 00:59:03;;;;;;;6.47;5.53;;;16.70;99.90;;;;;;4959567;29;20529;-59
2021/07/18 01:01:31;;;;;;;6.23;5.63;;;16.60;99.90;;;;;;4959735;29;20947;-58
2021/07/18 01:03:59;;;;;;;7.70;6.53;;;16.60;99.90;;;;;;4958934;29;20927;-57
2021/07/18 01:06:26;;;;;;;6.23;5.63;;;16.50;99.90;;;;;;4950051;28;20495;-57
2021/07/18 01:08:53;;;;;;;7.90;6.77;;;16.50;99.90;;;;;;4958751;29;20497;-58
2021/07/18 01:11:20;;;;;;;8.83;6.00;;;16.40;99.90;;;;;;4958800;29;20461;-56
2021/07/18 01:13:52;;;;;;;7.17;5.80;;;16.40;99.90;;;;;;4958861;29;20462;-59
2021/07/18 01:16:19;;;;;;;5.77;5.20;;;16.40;99.90;;;;;;4958732;29;20544;-59
2021/07/18 01:18:46;;;;;;;6.67;6.07;;;16.40;99.90;;;;;;4958714;28;20888;-58
2021/07/18 01:21:14;;;;;;;9.80;6.00;;;16.40;99.90;;;;;;4958812;29;20441;-59
2021/07/18 01:23:43;;;;;;;8.50;6.70;;;16.30;99.90;;;;;;4958303;29;20469;-56
2021/07/18 01:26:10;;;;;;;6.70;6.03;;;16.30;99.90;;;;;;4959338;29;20753;-57
2021/07/18 01:28:38;;;;;;;8.50;5.93;;;16.30;99.90;;;;;;4959003;29;20467;-57
2021/07/18 01:31:05;;;;;;;7.30;6.57;;;16.30;99.90;;;;;;4959485;29;20823;-56
2021/07/18 01:33:35;;;;;;;7.10;6.40;;;16.30;99.90;;;;;;4958985;29;20467;-55
2021/07/18 01:36:02;;;;;;;9.43;6.00;;;16.20;99.90;;;;;;4958691;29;20906;-57
2021/07/18 01:38:29;;;;;;;9.20;6.80;;;16.30;99.90;;;;;;4958857;29;20510;-57
2021/07/18 01:40:58;;;;;;;7.47;6.77;;;16.20;99.90;;;;;;4958799;29;20545;-58
2021/07/18 01:43:28;;;;;;;7.90;7.10;;;16.20;99.90;;;;;;4958562;29;20476;-57
2021/07/18 01:45:55;;;;;;;11.90;6.43;;;16.20;99.90;;;;;;4958803;29;20469;-59
2021/07/18 01:48:22;;;;;;;6.70;5.80;;;16.20;99.90;;;;;;4958910;28;20513;-56
2021/07/18 01:50:49;;;;;;;6.60;5.90;;;16.10;99.90;;;;;;4958787;29;20542;-57
2021/07/18 01:53:16;;;;;;;7.47;6.50;;;16.00;99.90;;;;;;4958549;29;20504;-56
2021/07/18 01:55:43;;;;;;;7.80;6.50;;;16.00;99.90;;;;;;4958425;29;20463;-55
2021/07/18 01:58:11;;;;;;;6.67;6.07;;;16.00;99.90;;;;;;4958715;28;20912;-57
2021/07/18 02:00:38;;;;;;;8.07;6.80;;;16.00;99.90;;;;;;4958760;29;20475;-57
2021/07/18 02:03:05;;;;;;;6.90;6.13;;;15.90;99.90;;;;;;4954002;29;21073;-58
2021/07/18 02:05:32;;;;;;;6.80;6.10;;;15.90;99.90;;;;;;4954873;29;20510;-59
2021/07/18 02:08:00;;;;;;;10.60;6.80;;;15.90;99.90;;;;;;4958142;29;20458;-55
2021/07/18 02:10:27;;;;;;;9.50;6.73;;;15.80;99.90;;;;;;4939336;29;20515;-58
2021/07/18 02:12:56;;;;;;;7.50;5.80;;;15.80;99.90;;;;;;4951606;29;20538;-59
2021/07/18 02:15:25;;;;;;;7.60;6.43;;;15.80;99.90;;;;;;4958179;28;20467;-58
2021/07/18 02:17:52;;;;;;;6.80;6.10;;;15.70;99.90;;;;;;4958060;29;20478;-58
2021/07/18 02:20:24;;;;;;;6.40;5.77;;;15.70;99.90;;;;;;4958792;29;20462;-60
2021/07/18 02:22:52;;;;;;;9.60;6.57;;;15.70;99.90;;;;;;4958048;29;20494;-59
2021/07/18 02:25:32;;;;;;;9.47;6.77;;;15.70;99.90;;;;;;4958716;29;20463;-59
2021/07/18 02:27:59;;;;;;;6.47;5.50;;;15.70;99.90;;;;;;4958113;29;20466;-59
2021/07/18 02:30:30;;;;;;;6.90;6.20;;;15.60;99.90;;;;;;4958561;28;20471;-60
2021/07/18 02:33:00;;;;;;;7.23;6.60;;;15.60;99.90;;;;;;4958839;29;20549;-60
2021/07/18 02:35:27;;;;;;;8.10;5.67;;;15.60;99.90;;;;;;4945543;29;20521;-60
2021/07/18 02:37:55;;;;;;;7.00;6.40;;;15.50;99.90;;;;;;4961619;29;20466;-58
2021/07/18 02:40:25;;;;;;;8.17;7.37;;;15.50;99.90;;;;;;4961344;29;20750;-60
2021/07/18 02:42:53;;;;;;;7.60;6.80;;;15.50;99.90;;;;;;4961612;29;20518;-60
2021/07/18 02:45:23;;;;;;;8.53;7.70;;;15.40;99.90;;;;;;4962280;29;20467;-57
2021/07/18 02:47:52;;;;;;;7.93;7.13;;;15.40;99.90;;;;;;4961417;29;20474;-59
2021/07/18 02:50:21;;;;;;;8.87;7.27;;;15.40;99.90;;;;;;4961334;29;20467;-58
2021/07/18 02:52:51;;;;;;;8.80;7.20;;;15.30;99.90;;;;;;4961453;29;20499;-59
2021/07/18 02:55:19;;;;;;;15.83;7.07;;;15.40;99.90;;;;;;4961787;29;20892;-60
2021/07/18 02:57:46;;;;;;;8.83;6.50;;;15.30;99.90;;;;;;4960843;29;20471;-58
2021/07/18 03:00:16;;;;;;;7.40;6.60;;;15.30;99.90;;;;;;4961411;29;20470;-60
2021/07/18 03:02:44;;;;;;;9.20;7.07;;;15.30;99.90;;;;;;4958407;29;20818;-60
2021/07/18 03:05:14;;;;;;;10.43;6.67;;;15.30;99.90;;;;;;4956107;29;20534;-58
2021/07/18 03:07:42;;;;;;;11.60;7.53;;;15.30;99.90;;;;;;4960779;29;20465;-59
2021/07/18 03:10:11;;;;;;;10.00;7.67;;;15.20;99.90;;;;;;4961131;29;20459;-58
2021/07/18 03:12:38;;;;;;;8.50;7.17;;;15.20;99.90;;;;;;4960610;29;20516;-60
2021/07/18 03:15:08;;;;;;;8.00;6.77;;;15.20;99.90;;;;;;4961269;29;20525;-59
2021/07/18 03:17:36;;;;;;;9.10;8.20;;;15.20;99.90;;;;;;4961277;29;20542;-60
2021/07/18 03:20:06;;;;;;;10.30;8.70;;;15.20;99.90;;;;;;4960760;29;20463;-60
2021/07/18 03:22:34;;;;;;;9.70;8.67;;;15.20;99.90;;;;;;4960970;29;20463;-60
2021/07/18 03:25:02;;;;;;;8.73;7.87;;;15.20;99.90;;;;;;4960711;29;20916;-58
2021/07/18 03:27:29;;;;;;;9.17;7.53;;;15.10;99.90;;;;;;4961077;29;20522;-58
2021/07/18 04:06:55;;;;;;;8.80;7.20;;;14.70;99.90;;;;;;5384511;23;20428;-59
2021/07/18 04:09:22;;;;;;;7.30;6.60;;;14.70;99.90;;;;;;4979035;28;20867;-60
2021/07/18 04:11:52;;;;;;;11.37;6.80;;;14.70;99.90;;;;;;4979451;28;20493;-60
2021/07/18 04:14:19;;;;;;;8.33;7.07;;;14.70;99.90;;;;;;4978924;28;20457;-60
2021/07/18 04:16:46;;;;;;;8.37;6.80;;;14.70;99.90;;;;;;4978620;28;20465;-60
2021/07/18 04:19:13;;;;;;;7.27;6.60;;;14.70;99.90;;;;;;4979534;28;20465;-60
2021/07/18 04:21:40;;;;;;;7.00;6.30;;;14.70;99.90;;;;;;4978394;28;20512;-60
2021/07/18 04:24:09;;;;;;;7.63;6.30;;;14.80;99.90;;;;;;4979315;28;20464;-60
2021/07/18 04:26:36;;;;;;;6.20;5.60;;;14.80;99.90;;;;;;4978700;28;20469;-60
2021/07/18 04:29:03;;;;;;;8.93;6.40;;;14.80;99.90;;;;;;4979227;28;20477;-60
2021/07/18 04:31:31;;;;;;;7.00;6.30;;;14.90;99.90;;;;;;4979398;28;20564;-60
2021/07/18 04:33:58;;;;;;;8.60;6.87;;;14.90;99.90;;;;;;4979018;28;20470;-60
2021/07/18 04:36:25;;;;;;;9.27;7.00;;;14.90;99.90;;;;;;4979100;28;20536;-60
2021/07/18 04:38:52;;;;;;;7.97;6.67;;;15.00;99.90;;;;;;4978766;28;20462;-60
2021/07/18 04:41:21;;;;;;;7.57;6.77;;;15.00;99.90;;;;;;4979271;28;20462;-60
2021/07/18 04:43:48;;;;;;;8.10;5.80;;;15.00;99.90;;;;;;4978609;28;20470;-60
2021/07/18 04:46:15;;;;;;;9.07;6.77;;;15.00;99.90;;;;;;4978752;28;20892;-60
2021/07/18 04:48:42;;;;;;;7.47;6.63;;;15.10;99.90;;;;;;4978952;28;20934;-60
2021/07/18 04:51:09;;;;;;;7.00;6.20;;;15.10;99.90;;;;;;4978966;28;20470;-60
2021/07/18 04:53:37;;;;;;;12.90;7.60;;;15.20;99.90;;;;;;4978305;28;20529;-60
2021/07/18 04:56:04;;;;;;;9.63;7.37;;;15.30;99.90;;;;;;4978135;28;20735;-60
2021/07/18 04:58:33;;;;;;;9.50;7.53;;;15.40;99.90;;;;;;4978801;28;20887;-60
2021/07/18 05:01:00;;;;;;;8.00;7.23;;;15.50;99.90;;;;;;4978607;28;20516;-60
2021/07/18 05:03:27;;;;;;;10.43;7.07;;;15.50;99.90;;;;;;4972524;28;20811;-60
2021/07/18 05:05:57;;;;;;;9.50;7.20;;;15.60;99.90;;;;;;4975938;28;20481;-60
2021/07/18 05:08:24;;;;;;;13.23;6.93;;;15.70;99.90;;;;;;4977633;28;20489;-60
2021/07/18 05:48:23;;;;;;;9.73;8.73;;;16.90;99.90;;;;;;4875880;23;20526;-61
2021/07/18 05:50:50;;;;;;;10.00;9.00;;;17.10;99.90;;;;;;4959143;29;20513;-61
2021/07/18 05:53:17;;;;;;;9.30;7.87;;;17.20;99.90;;;;;;4958887;29;20494;-61
2021/07/18 05:55:45;;;;;;;10.87;8.37;;;17.40;99.90;;;;;;4958593;29;20474;-60
2021/07/18 05:58:12;;;;;;;11.17;8.70;;;17.60;99.90;;;;;;4958757;29;20938;-60
2021/07/18 06:00:40;;;;;;;10.50;8.00;;;17.70;99.90;;;;;;4958978;29;20891;-61
2021/07/18 06:03:10;;;;;;;9.77;8.77;;;17.90;99.90;;;;;;4953536;29;20517;-61
2021/07/18 06:05:39;;;;;;;9.50;8.60;;;18.00;99.90;;;;;;4956202;28;20474;-60
2021/07/18 06:08:07;;;;;;;8.10;7.10;;;18.20;99.90;;;;;;4961908;29;20495;-61
2021/07/18 06:10:36;;;;;;;10.87;8.60;;;18.20;99.90;;;;;;4962069;29;20508;-61
2021/07/18 06:13:04;;;;;;;9.40;7.13;;;18.40;99.90;;;;;;4961950;29;20573;-61
2021/07/18 06:15:31;;;;;;;9.13;7.43;;;18.70;99.90;;;;;;4962172;29;20474;-59
2021/07/18 06:17:58;;;;;;;8.00;6.70;;;19.00;99.90;;;;;;4962133;29;20927;-60
2021/07/18 06:20:26;;;;;;;9.43;7.47;;;19.40;99.90;;;;;;4962000;29;20466;-60
2021/07/18 06:22:54;;;;;;;9.40;7.57;;;19.50;99.90;;;;;;4961898;29;20469;-60
2021/07/18 06:25:21;;;;;;;7.43;6.70;;;19.50;99.90;;;;;;4962129;29;20462;-60
2021/07/18 06:27:49;;;;;;;8.37;7.50;;;19.30;99.90;;;;;;4961993;29;20729;-57
2021/07/18 06:30:19;;;;;;;8.27;7.43;;;19.50;99.90;;;;;;4961998;29;20471;-55
2021/07/18 06:32:46;;;;;;;7.70;7.00;;;19.60;99.90;;;;;;4961734;29;20495;-59
2021/07/18 06:35:13;;;;;;;7.90;7.10;;;19.70;99.90;;;;;;4962120;28;20525;-56
2021/07/18 06:37:43;;;;;;;8.60;7.47;;;19.90;99.90;;;;;;4961805;28;20489;-55
2021/07/18 06:40:13;;;;;;;7.63;6.70;;;20.30;99.90;;;;;;4961469;29;20521;-55
2021/07/18 06:42:40;;;;;;;7.60;6.90;;;20.10;99.90;;;;;;4961811;29;20573;-57
2021/07/18 06:45:11;;;;;;;10.47;7.00;;;20.20;99.90;;;;;;4961818;29;20521;-56
2021/07/18 06:47:40;;;;;;;8.70;6.40;;;20.70;99.90;;;;;;4961488;29;20498;-58
2021/07/18 06:50:08;;;;;;;6.50;5.23;;;20.80;99.90;;;;;;4961917;29;20884;-56
2021/07/18 06:52:35;;;;;;;5.30;4.80;;;20.40;99.90;;;;;;4961338;29;20857;-57
2021/07/18 06:55:02;;;;;;;5.20;4.70;;;20.20;99.90;;;;;;4961702;29;20467;-56
2021/07/18 06:57:36;;;;;;;5.17;4.63;;;20.40;99.90;;;;;;4961372;29;20462;-57
2021/07/18 07:00:07;;;;;;;5.23;4.37;;;20.90;99.90;;;;;;4961668;29;20465;-59
2021/07/18 07:02:36;;;;;;;5.20;4.30;;;21.20;99.90;;;;;;4959918;29;20954;-56
2021/07/18 07:05:03;;;;;;;5.73;4.37;;;21.70;99.90;;;;;;4954674;29;20565;-60
2021/07/18 07:07:34;;;;;;;6.37;3.60;;;22.00;99.90;;;;;;4961044;29;20890;-57
2021/07/18 07:10:01;;;;;;;3.60;3.30;;;21.90;99.90;;;;;;4960750;29;20762;-57
2021/07/18 07:12:31;;;;;;;4.33;3.47;;;21.90;99.90;;;;;;4960464;29;20542;-58
2021/07/18 07:15:00;;;;;;;5.90;3.53;;;22.00;99.90;;;;;;4961213;29;20735;-59
2021/07/18 07:17:27;;;;;;;3.67;3.40;;;22.50;99.90;;;;;;4960604;28;20466;-56
2021/07/18 07:19:54;;;;;;;3.47;3.17;;;22.10;99.90;;;;;;4960892;29;20470;-59
2021/07/18 07:22:21;;;;;;;5.00;3.67;;;22.00;99.90;;;;;;4960892;28;20466;-58
2021/07/18 07:24:50;;;;;;;3.67;3.30;;;22.10;99.90;;;;;;4961739;29;20469;-59
2021/07/18 07:27:17;;;;;;;3.20;2.90;;;22.50;99.90;;;;;;4961510;29;20471;-59
2021/07/18 07:29:44;;;;;;;7.30;3.87;;;22.70;99.90;;;;;;4960881;29;20502;-54
2021/07/18 07:32:13;;;;;;;3.90;3.50;;;22.30;99.90;;;;;;4960778;28;20497;-56
2021/07/18 07:34:42;;;;;;;7.10;3.17;;;21.80;99.90;;;;;;4960648;29;20445;-58
2021/07/18 07:37:10;;;;;;;4.73;3.20;;;22.10;99.90;;;;;;4961219;29;20514;-56
2021/07/18 07:39:37;;;;;;;4.10;3.70;;;22.30;99.90;;;;;;4960180;29;20469;-58
2021/07/18 07:42:06;;;;;;;6.70;3.87;;;22.70;99.90;;;;;;4960464;29;20475;-59
2021/07/18 07:44:33;;;;;;;4.20;3.80;;;22.60;99.90;;;;;;4960299;29;20847;-57
2021/07/18 07:47:00;;;;;;;4.40;3.60;;;22.60;99.90;;;;;;4960202;29;20494;-58
2021/07/18 07:49:29;;;;;;;3.83;3.03;;;23.00;99.90;;;;;;4960663;29;20454;-57
2021/07/18 07:51:56;;;;;;;5.60;4.17;;;22.60;99.90;;;;;;4960097;29;20466;-59
2021/07/18 07:54:24;;;;;;;4.60;3.07;;;22.90;99.90;;;;;;4959847;29;20494;-59
2021/07/18 07:56:51;;;;;;;3.40;3.10;;;23.80;99.90;;;;;;4960540;29;20472;-60
2021/07/18 07:59:18;;;;;;;4.07;3.50;;;23.80;99.10;;;;;;4959701;29;20463;-60
2021/07/18 08:01:46;;;;;;;6.40;3.73;;;23.80;99.90;;;;;;4960100;29;20756;-55
2021/07/18 08:04:14;;;;;;;4.40;3.77;;;23.50;99.90;;;;;;4951085;29;20471;-56
2021/07/18 08:06:48;;;;;;;4.40;3.33;;;23.20;99.90;;;;;;4955951;29;20462;-57
2021/07/18 08:09:15;;;;;;;3.60;3.23;;;23.10;99.90;;;;;;4960477;29;20908;-57
2021/07/18 08:11:45;;;;;;;3.40;3.10;;;23.10;99.90;;;;;;4959661;29;20470;-58
2021/07/18 08:14:13;;;;;;;5.63;3.57;;;23.70;99.90;;;;;;4959102;28;20490;-58
2021/07/18 08:16:43;;;;;;;4.10;3.60;;;23.40;99.00;;;;;;4959980;29;20470;-56
2021/07/18 08:19:13;;;;;;;4.40;3.97;;;23.30;99.90;;;;;;4960201;29;20470;-56
2021/07/18 08:21:42;;;;;;;5.13;3.57;;;23.70;99.30;;;;;;4959260;28;20466;-57
2021/07/18 08:24:13;;;;;;;3.60;3.30;;;23.80;99.50;;;;;;4959416;29;20805;-58
2021/07/18 08:26:40;;;;;;;4.37;3.67;;;24.90;99.70;;;;;;4959936;29;20891;-59
2021/07/18 08:29:08;;;;;;;4.60;3.67;;;25.60;94.20;;;;;;4959414;28;20463;-58
2021/07/18 08:31:35;;;;;;;5.63;3.97;;;25.40;92.20;;;;;;4959453;29;20888;-60
2021/07/18 08:34:03;;;;;;;3.47;3.27;;;25.10;92.70;;;;;;4958966;28;20569;-56
2021/07/18 08:36:30;;;;;;;3.77;3.27;;;24.50;90.70;;;;;;4959701;29;20475;-55
2021/07/18 08:38:57;;;;;;;4.70;4.20;;;24.50;94.60;;;;;;4949537;29;20465;-58
2021/07/18 08:41:27;;;;;;;4.27;3.97;;;25.50;92.60;;;;;;4959924;29;20470;-58
2021/07/18 08:43:54;;;;;;;5.23;3.93;;;26.20;90.20;;;;;;4960324;29;20470;-59
2021/07/18 08:46:21;;;;;;;3.90;3.60;;;26.60;84.00;;;;;;4959598;29;20466;-58
2021/07/18 08:48:49;;;;;;;3.67;3.37;;;26.10;85.30;;;;;;4959300;29;20837;-60
2021/07/18 08:51:17;;;;;;;3.93;3.63;;;26.40;85.50;;;;;;4958757;29;20938;-59
2021/07/18 08:53:44;;;;;;;3.80;3.50;;;26.80;83.90;;;;;;4959032;29;20498;-56
2021/07/18 08:56:12;;;;;;;3.70;3.30;;;27.20;81.60;;;;;;4958969;29;20529;-59
2021/07/18 08:58:41;;;;;;;4.53;4.23;;;27.00;79.00;;;;;;4959372;29;20466;-59
2021/07/18 09:01:08;;;;;;;3.37;3.17;;;27.20;76.80;;;;;;4958860;29;20502;-57
2021/07/18 09:03:36;;;;;;;5.53;3.90;;;27.30;77.50;;;;;;4953508;29;20904;-60
2021/07/18 09:06:08;;;;;;;4.73;4.27;;;27.30;75.60;;;;;;4956646;29;20533;-59
2021/07/18 09:08:47;;;;;;;4.30;4.00;;;27.40;76.60;;;;;;4959035;29;20880;-56
2021/07/18 09:11:26;;;;;;;5.10;4.70;;;27.80;73.20;;;;;;4958593;29;20973;-58
2021/07/18 09:14:00;;;;;;;5.57;3.93;;;26.90;74.00;;;;;;4957998;29;20550;-59
2021/07/18 09:16:31;;;;;;;4.33;3.93;;;27.30;75.80;;;;;;4958785;29;20470;-60
2021/07/18 09:19:20;;;;;;;5.80;3.40;;;27.30;76.60;;;;;;4959155;29;20473;-61
2021/07/18 09:22:15;;;;;;;3.70;3.30;;;27.90;76.80;;;;;;4958635;29;20519;-61
2021/07/18 09:24:45;;;;;;;4.10;3.80;;;27.00;73.90;;;;;;4955624;29;20525;-59
2021/07/18 09:27:18;;;;;;;3.93;3.63;;;27.30;77.00;;;;;;4958835;28;20466;-60
2021/07/18 09:29:48;;;;;;;4.97;3.70;;;27.10;74.60;;;;;;4959022;29;20753;-59
2021/07/18 10:08:57;;;;;;;4.20;3.70;;;28.10;70.30;;;;;;3328496;23;20494;-60
2021/07/18 10:11:27;;;;;;;3.97;3.70;;;28.10;64.90;;;;;;4962385;29;20458;-60
2021/07/18 10:13:56;;;;;;;4.27;3.87;;;28.00;69.20;;;;;;4961801;29;20487;-61
2021/07/18 10:16:25;;;;;;;3.77;3.57;;;28.30;67.60;;;;;;4962485;29;20469;-60
2021/07/18 10:18:54;;;;;;;4.00;3.60;;;29.30;66.60;;;;;;4962217;29;20836;-61
2021/07/18 10:21:23;;;;;;;5.27;4.23;;;29.00;62.50;;;;;;4961218;29;20883;-61
2021/07/18 10:23:52;;;;;;;3.83;3.40;;;28.30;63.80;;;;;;4961791;29;20525;-61
2021/07/18 10:26:24;;;;;;;6.07;4.47;;;27.90;66.40;;;;;;4961802;29;20653;-61
2021/07/18 10:28:52;;;;;;;4.67;4.37;;;27.60;70.00;;;;;;4959497;29;20529;-61
2021/07/18 10:31:23;;;;;;;4.20;3.73;;;27.80;68.20;;;;;;4960071;29;20459;-61
2021/07/18 10:33:54;;;;;;;4.10;3.80;;;28.10;66.60;;;;;;4960879;29;21041;-61
2021/07/18 10:36:24;;;;;;;3.70;3.40;;;27.60;68.00;;;;;;4961824;29;20465;-61
2021/07/18 10:38:56;;;;;;;6.67;4.93;;;27.70;64.40;;;;;;4960941;29;20525;-61
2021/07/18 10:41:44;;;;;;;5.07;4.67;;;27.70;68.50;;;;;;4961257;29;20466;-61
2021/07/18 10:44:13;;;;;;;5.40;5.00;;;27.70;66.40;;;;;;4961346;29;20463;-61
2021/07/18 10:46:55;;;;;;;4.70;4.30;;;28.20;68.80;;;;;;4961431;28;20919;-61
2021/07/18 10:49:50;;;;;;;5.07;4.67;;;27.60;64.60;;;;;;4961630;29;20892;-61
2021/07/18 10:52:18;;;;;;;5.63;5.23;;;28.20;64.00;;;;;;4960438;28;20455;-61
2021/07/18 10:54:48;;;;;;;7.83;5.80;;;28.90;64.00;;;;;;4960818;29;20494;-61
2021/07/18 10:57:37;;;;;;;4.57;4.17;;;28.50;63.60;;;;;;4959863;29;20474;-61
2021/07/18 11:00:23;;;;;;;6.20;5.70;;;28.20;60.80;;;;;;4959916;29;20561;-61
2021/07/18 11:03:04;;;;;;;7.07;6.53;;;28.40;64.90;;;;;;4955784;29;20474;-61
2021/07/18 11:05:40;;;;;;;4.40;4.00;;;28.80;61.20;;;;;;4957512;29;20564;-61
2021/07/18 11:08:07;;;;;;;5.57;4.60;;;29.00;59.30;;;;;;4960478;29;20526;-61
2021/07/18 11:10:53;;;;;;;5.57;5.10;;;29.60;59.20;;;;;;4960574;29;20466;-61
2021/07/18 11:13:22;;;;;;;5.40;4.90;;;28.60;60.50;;;;;;4960096;29;20490;-61
2021/07/18 11:15:49;;;;;;;5.27;4.83;;;27.50;63.30;;;;;;4960452;29;20466;-61
2021/07/18 11:18:20;;;;;;;5.27;4.77;;;27.50;66.80;;;;;;4961296;29;20474;-61
2021/07/18 11:21:08;;;;;;;5.67;5.27;;;27.50;63.00;;;;;;4960754;29;20466;-62
2021/07/18 11:23:38;;;;;;;5.40;4.60;;;27.90;64.00;;;;;;4960672;29;20463;-61
2021/07/18 11:26:13;;;;;;;4.47;4.20;;;28.40;60.80;;;;;;4961267;29;20471;-61
2021/07/18 11:28:50;;;;;;;4.93;4.50;;;28.10;61.10;;;;;;4960702;29;20474;-61
2021/07/18 12:10:21;;;;;;;6.70;4.53;;;29.50;58.40;;;;;;5032443;23;20497;-62
2021/07/18 12:12:53;;;;;;;5.23;3.97;;;29.00;57.60;;;;;;4968477;28;20552;-62
2021/07/18 12:15:20;;;;;;;5.13;4.60;;;29.80;58.50;;;;;;4973442;28;20497;-62
2021/07/18 12:17:47;;;;;;;5.13;4.00;;;30.30;56.70;;;;;;4979420;28;20472;-62
2021/07/18 12:20:21;;;;;;;4.43;4.10;;;30.10;56.50;;;;;;4960091;28;20521;-62
2021/07/18 12:22:50;;;;;;;4.60;4.20;;;30.10;57.40;;;;;;4959487;29;20557;-62
2021/07/18 12:25:22;;;;;;;4.87;4.50;;;29.50;56.10;;;;;;4959583;29;20900;-62
2021/07/18 12:27:51;;;;;;;6.40;4.73;;;28.70;57.30;;;;;;4970711;28;20521;-61
2021/07/18 12:30:23;;;;;;;4.60;4.27;;;29.00;58.70;;;;;;4978780;28;20473;-61
2021/07/18 12:32:50;;;;;;;4.93;4.53;;;29.60;58.90;;;;;;4979157;28;20461;-61
2021/07/18 12:35:18;;;;;;;4.90;4.47;;;30.70;57.00;;;;;;4978824;28;20506;-61
2021/07/18 12:37:48;;;;;;;4.30;3.90;;;31.40;56.30;;;;;;4979320;28;20469;-62
2021/07/18 12:40:15;;;;;;;4.73;4.20;;;30.40;55.10;;;;;;4958298;29;20561;-61
2021/07/18 12:42:44;;;;;;;4.83;4.53;;;29.80;58.10;;;;;;4959460;29;20949;-61
2021/07/18 12:45:13;;;;;;;4.50;3.97;;;29.40;59.00;;;;;;4972469;28;20466;-61
2021/07/18 12:47:41;;;;;;;5.00;4.60;;;29.60;60.10;;;;;;4978907;28;20564;-61
2021/07/18 12:50:20;;;;;;;4.87;4.60;;;29.90;58.20;;;;;;4978497;28;20472;-61
2021/07/18 12:53:07;;;;;;;5.87;5.37;;;29.10;58.80;;;;;;4978809;28;20520;-61
2021/07/18 12:55:38;;;;;;;5.20;4.80;;;30.10;59.80;;;;;;4978553;28;20549;-61
2021/07/18 12:58:14;;;;;;;5.40;4.93;;;30.20;56.60;;;;;;4978919;28;20472;-61
2021/07/18 13:00:42;;;;;;;6.27;5.20;;;29.60;58.00;;;;;;4978286;28;20482;-61
2021/07/18 13:03:10;;;;;;;4.50;4.10;;;29.40;60.10;;;;;;4969867;28;20804;-61
2021/07/18 13:05:38;;;;;;;5.47;5.07;;;29.30;60.10;;;;;;4956006;29;20473;-61
2021/07/18 13:08:05;;;;;;;4.50;4.20;;;28.70;61.30;;;;;;4958921;29;20466;-61
2021/07/18 13:10:38;;;;;;;6.13;4.80;;;29.20;62.70;;;;;;4958026;29;20534;-61
2021/07/18 13:50:46;;;;;;;4.60;4.30;;;28.70;59.30;;;;;;5126849;23;20572;-58
2021/07/18 13:53:21;;;;;;;4.83;4.37;;;29.40;61.10;;;;;;4936278;29;20515;-58
2021/07/18 13:55:48;;;;;;;5.60;4.80;;;29.60;59.60;;;;;;4936726;29;20573;-55
2021/07/18 14:34:46;;;;;;;5.93;5.43;;;30.70;56.60;;;;;;5481129;23;20490;-61
2021/07/18 14:37:13;;;;;;;6.00;4.67;;;29.90;59.00;;;;;;4921678;29;20472;-60
2021/07/18 14:39:40;;;;;;;6.57;5.90;;;29.20;59.10;;;;;;4922229;29;20472;-60
2021/07/18 14:42:07;;;;;;;5.47;4.97;;;29.00;61.00;;;;;;4922127;29;20906;-60
2021/07/18 14:44:34;;;;;;;6.33;5.83;;;28.90;60.70;;;;;;4922304;29;20928;-60
2021/07/18 14:47:02;;;;;;;5.73;5.23;;;29.20;59.00;;;;;;4923211;29;20516;-59
2021/07/18 14:49:29;;;;;;;5.43;5.03;;;29.30;59.50;;;;;;4923478;29;20571;-60
2021/07/18 14:51:57;;;;;;;6.10;5.60;;;29.40;58.10;;;;;;4923656;29;20492;-58
2021/07/18 14:54:30;;;;;;;5.40;4.80;;;29.40;59.10;;;;;;4922268;29;20496;-58
2021/07/18 14:56:57;;;;;;;5.80;5.30;;;29.40;60.20;;;;;;4922034;29;20476;-60
2021/07/18 14:59:25;;;;;;;6.27;5.77;;;30.00;58.40;;;;;;4921860;29;20465;-60
2021/07/18 15:01:54;;;;;;;5.90;5.50;;;29.90;58.50;;;;;;4922523;29;20920;-60
2021/07/18 15:04:21;;;;;;;6.40;6.00;;;30.30;58.90;;;;;;4914397;29;20480;-61
2021/07/18 15:06:48;;;;;;;6.80;6.30;;;29.80;56.90;;;;;;4922174;29;20468;-60
2021/07/18 15:09:16;;;;;;;6.63;5.93;;;29.50;59.40;;;;;;4922279;29;20524;-59
2021/07/18 15:11:43;;;;;;;7.03;6.47;;;30.00;59.40;;;;;;4922139;29;20524;-60
2021/07/18 15:14:10;;;;;;;6.80;6.30;;;30.20;58.00;;;;;;4922511;29;20822;-60
2021/07/18 15:16:38;;;;;;;6.53;6.10;;;29.90;57.90;;;;;;4922751;29;20468;-61
2021/07/18 15:19:08;;;;;;;5.57;5.27;;;29.80;58.80;;;;;;4922321;29;20665;-60
2021/07/18 15:21:35;;;;;;;5.90;5.50;;;29.20;58.70;;;;;;4922344;29;20477;-60
2021/07/18 15:24:06;;;;;;;6.07;5.47;;;29.10;59.40;;;;;;4922553;29;20468;-60
2021/07/18 15:26:35;;;;;;;5.67;5.30;;;28.90;59.50;;;;;;4921842;29;20465;-60
2021/07/18 15:29:02;;;;;;;6.67;6.17;;;28.70;60.90;;;;;;4922303;29;20796;-60
2021/07/18 15:31:30;;;;;;;5.97;5.57;;;28.60;60.90;;;;;;4921753;29;20828;-59
2021/07/18 15:33:57;;;;;;;6.07;5.67;;;29.30;61.90;;;;;;4921721;29;20472;-60
2021/07/18 15:36:24;;;;;;;6.30;5.80;;;29.40;60.80;;;;;;4921975;29;20500;-60
2021/07/18 15:38:51;;;;;;;7.00;5.90;;;30.00;59.40;;;;;;4921405;29;20488;-58
2021/07/18 15:41:18;;;;;;;6.43;6.03;;;30.40;58.80;;;;;;4920991;29;20520;-61
2021/07/18 16:20:38;;;;;;;6.57;6.17;;;27.90;61.20;;;;;;5344123;23;20534;-60
2021/07/18 16:23:05;;;;;;;6.63;6.23;;;27.90;63.00;;;;;;4920593;29;20448;-60
2021/07/18 16:25:35;;;;;;;7.13;6.07;;;28.00;62.40;;;;;;4921571;29;20555;-60
2021/07/18 16:28:03;;;;;;;7.17;6.67;;;28.10;61.70;;;;;;4921032;29;20476;-60
2021/07/18 17:06:22;;;;;;;8.17;7.47;;;27.50;61.20;;;;;;5009011;23;20864;-59
2021/07/18 17:08:51;;;;;;;7.27;6.73;;;27.10;61.30;;;;;;4958697;29;20525;-59
2021/07/18 17:11:18;;;;;;;6.90;6.40;;;26.80;62.30;;;;;;4958692;29;20526;-60
2021/07/18 17:13:48;;;;;;;9.37;7.03;;;26.80;62.20;;;;;;4958449;28;20463;-59
2021/07/18 17:16:16;;;;;;;7.80;7.20;;;26.80;63.90;;;;;;4959031;29;20501;-59
2021/07/18 17:18:43;;;;;;;6.60;6.00;;;26.60;63.70;;;;;;4958747;29;21180;-59
2021/07/18 17:21:11;;;;;;;8.00;7.30;;;26.60;63.50;;;;;;4957923;29;20726;-58
2021/07/18 17:23:45;;;;;;;7.60;7.10;;;26.50;64.10;;;;;;4957856;29;20888;-56
2021/07/18 17:26:12;;;;;;;7.13;6.20;;;26.40;64.70;;;;;;4959230;29;20521;-58
2021/07/18 17:28:39;;;;;;;7.10;6.50;;;26.50;65.70;;;;;;4958555;29;20467;-58
2021/07/18 17:31:07;;;;;;;8.97;7.03;;;26.40;65.20;;;;;;4958458;29;20909;-59
2021/07/18 17:33:34;;;;;;;7.23;6.73;;;26.60;66.80;;;;;;4958598;29;20525;-59
2021/07/18 17:36:03;;;;;;;7.20;6.67;;;26.50;66.20;;;;;;4959003;29;20506;-59
2021/07/18 17:38:30;;;;;;;6.97;6.47;;;26.50;65.50;;;;;;4958592;29;20554;-57
2021/07/18 17:40:58;;;;;;;7.23;6.50;;;26.40;66.20;;;;;;4959268;29;20463;-59
2021/07/18 17:43:25;;;;;;;7.53;7.03;;;26.30;66.40;;;;;;4958958;29;20466;-58
2021/07/18 17:45:52;;;;;;;7.33;6.83;;;26.00;67.30;;;;;;4958804;29;20471;-58
2021/07/18 17:48:19;;;;;;;6.57;6.17;;;26.00;68.60;;;;;;4959063;29;20462;-59
2021/07/18 17:50:47;;;;;;;6.70;6.20;;;25.90;68.60;;;;;;4958585;29;20466;-58
2021/07/18 17:53:14;;;;;;;6.90;6.30;;;25.70;68.20;;;;;;4958621;29;20470;-58